createdAt,value
2022-10-09T00:00:00.659Z,66.95
2022-10-09T00:02:27.445Z,67.14
2022-10-09T00:04:53.796Z,67.12
2022-10-09T00:07:20.104Z,66.94
2022-10-09T00:09:46.502Z,66.75
2022-10-09T00:12:12.754Z,66.98
2022-10-09T00:14:39.085Z,66.92
2022-10-09T00:17:05.459Z,66.70
2022-10-09T00:19:31.923Z,66.59
2022-10-09T00:21:58.279Z,66.59
2022-10-09T00:24:24.586Z,66.60
2022-10-09T00:26:51.067Z,66.59
2022-10-09T00:29:17.694Z,66.84
2022-10-09T00:31:44.238Z,66.61
2022-10-09T00:34:10.554Z,66.50
2022-10-09T00:36:36.950Z,66.53
2022-10-09T00:39:03.259Z,66.67
2022-10-09T00:41:29.562Z,66.46
2022-10-09T00:43:55.930Z,66.68
2022-10-09T00:46:22.515Z,66.71
2022-10-09T00:48:48.942Z,66.58
2022-10-09T00:51:15.267Z,66.58
2022-10-09T00:53:41.557Z,66.59
2022-10-09T00:56:07.910Z,66.45
2022-10-09T00:58:34.337Z,66.42
2022-10-09T01:01:00.758Z,66.50
2022-10-09T01:03:27.193Z,66.42
2022-10-09T01:05:55.361Z,66.36
2022-10-09T01:08:22.126Z,66.34
2022-10-09T01:10:48.726Z,66.39
2022-10-09T01:13:15.499Z,66.34
2022-10-09T01:15:42.197Z,66.30
2022-10-09T01:18:08.837Z,66.48
2022-10-09T01:20:35.287Z,66.40
2022-10-09T01:23:01.770Z,66.20
2022-10-09T01:25:28.067Z,66.17
2022-10-09T01:27:54.416Z,66.18
2022-10-09T01:30:20.910Z,65.95
2022-10-09T01:32:47.447Z,65.71
2022-10-09T01:35:14.189Z,66.12
2022-10-09T01:37:40.639Z,66.00
2022-10-09T01:40:06.912Z,65.89
2022-10-09T01:42:33.274Z,65.84
2022-10-09T01:44:59.843Z,66.03
2022-10-09T01:47:26.455Z,66.12
2022-10-09T01:49:52.820Z,65.93
2022-10-09T01:52:19.253Z,66.17
2022-10-09T01:54:45.598Z,66.15
2022-10-09T01:57:12.049Z,65.74
2022-10-09T01:59:38.346Z,66.10
2022-10-09T02:02:04.690Z,65.67
2022-10-09T02:04:31.387Z,65.91
2022-10-09T02:06:57.796Z,65.81
2022-10-09T02:09:24.144Z,65.90
2022-10-09T02:11:50.439Z,65.82
2022-10-09T02:14:16.760Z,65.70
2022-10-09T02:16:43.314Z,65.72
2022-10-09T02:19:09.956Z,65.57
2022-10-09T02:21:36.421Z,65.88
2022-10-09T02:24:02.811Z,65.49
2022-10-09T02:26:29.171Z,65.86
2022-10-09T02:28:55.614Z,65.80
2022-10-09T02:31:22.071Z,65.82
2022-10-09T02:33:48.441Z,65.71
2022-10-09T02:36:14.775Z,65.36
2022-10-09T02:38:41.159Z,65.67
2022-10-09T02:41:07.523Z,65.78
2022-10-09T02:43:33.788Z,65.28
2022-10-09T02:46:00.166Z,65.76
2022-10-09T02:48:27.132Z,65.37
2022-10-09T02:50:54.817Z,65.76
2022-10-09T02:53:21.298Z,65.43
2022-10-09T02:55:47.585Z,65.69
2022-10-09T02:58:13.962Z,65.35
2022-10-09T03:00:40.301Z,65.50
2022-10-09T03:03:06.898Z,65.48
2022-10-09T03:05:33.489Z,65.65
2022-10-09T03:08:00.149Z,65.23
2022-10-09T03:10:26.621Z,65.67
2022-10-09T03:12:52.992Z,65.23
2022-10-09T03:15:19.294Z,65.28
2022-10-09T03:17:45.557Z,65.25
2022-10-09T03:20:11.866Z,65.32
2022-10-09T03:22:38.175Z,65.25
2022-10-09T03:25:04.451Z,65.29
2022-10-09T03:27:30.711Z,65.33
2022-10-09T03:29:57.114Z,65.69
2022-10-09T03:32:23.495Z,65.44
2022-10-09T03:34:49.838Z,65.28
2022-10-09T03:37:16.101Z,65.52
2022-10-09T03:39:42.524Z,65.33
2022-10-09T03:42:08.847Z,65.34
2022-10-09T03:44:35.161Z,65.79
2022-10-09T03:47:01.574Z,65.21
2022-10-09T03:49:27.997Z,65.60
2022-10-09T03:51:54.248Z,65.28
2022-10-09T03:54:20.557Z,65.64
2022-10-09T03:56:46.905Z,65.32
2022-10-09T03:59:13.202Z,65.48
2022-10-09T04:01:39.515Z,65.52
2022-10-09T04:04:05.786Z,65.60
2022-10-09T04:06:32.115Z,65.45
2022-10-09T04:08:58.477Z,65.60
2022-10-09T04:11:24.792Z,65.54
2022-10-09T04:13:51.090Z,65.15
2022-10-09T04:16:17.593Z,65.78
2022-10-09T04:18:43.938Z,65.30
2022-10-09T04:21:10.249Z,65.55
2022-10-09T04:23:36.562Z,65.33
2022-10-09T04:26:02.863Z,65.76
2022-10-09T04:28:29.456Z,65.27
2022-10-09T04:30:55.815Z,65.33
2022-10-09T04:33:22.109Z,65.61
2022-10-09T04:35:48.459Z,65.29
2022-10-09T04:38:14.739Z,65.30
2022-10-09T04:40:41.074Z,65.18
2022-10-09T04:43:07.346Z,65.33
2022-10-09T04:45:33.680Z,65.27
2022-10-09T04:48:00.249Z,65.51
2022-10-09T04:50:26.683Z,65.11
2022-10-09T04:52:52.943Z,65.17
2022-10-09T04:55:19.312Z,65.55
2022-10-09T04:57:45.568Z,65.59
2022-10-09T05:00:11.849Z,65.34
2022-10-09T05:02:38.152Z,65.13
2022-10-09T05:05:04.437Z,65.43
2022-10-09T05:07:30.725Z,65.38
2022-10-09T05:09:57.009Z,64.97
2022-10-09T05:12:23.342Z,65.15
2022-10-09T05:14:49.620Z,65.33
2022-10-09T05:17:17.927Z,64.99
2022-10-09T05:19:47.099Z,65.25
2022-10-09T05:22:13.514Z,65.30
2022-10-09T05:24:39.882Z,65.31
2022-10-09T05:27:06.221Z,65.14
2022-10-09T05:29:32.743Z,65.21
2022-10-09T05:31:59.125Z,64.94
2022-10-09T05:34:25.562Z,65.26
2022-10-09T05:36:51.882Z,64.91
2022-10-09T05:39:18.361Z,65.11
2022-10-09T05:41:45.427Z,65.12
2022-10-09T05:44:11.853Z,65.05
2022-10-09T05:46:38.153Z,64.91
2022-10-09T05:49:04.435Z,65.06
2022-10-09T05:51:30.846Z,64.75
2022-10-09T05:53:59.014Z,65.05
2022-10-09T05:56:25.728Z,64.69
2022-10-09T05:58:52.012Z,65.08
2022-10-09T06:01:18.625Z,65.05
2022-10-09T06:03:45.113Z,64.91
2022-10-09T06:06:11.558Z,64.72
2022-10-09T06:08:37.853Z,64.92
2022-10-09T06:11:04.254Z,64.97
2022-10-09T06:13:30.585Z,64.76
2022-10-09T06:15:56.925Z,64.91
2022-10-09T06:18:23.240Z,65.12
2022-10-09T06:20:49.516Z,65.15
2022-10-09T06:23:15.781Z,65.10
2022-10-09T06:25:42.089Z,64.98
2022-10-09T06:28:08.541Z,65.05
2022-10-09T06:30:38.498Z,65.39
2022-10-09T06:33:05.265Z,65.20
2022-10-09T06:35:32.037Z,65.40
2022-10-09T06:37:58.568Z,65.69
2022-10-09T06:40:24.915Z,65.31
2022-10-09T06:42:51.800Z,65.66
2022-10-09T06:45:18.388Z,64.77
2022-10-09T06:47:45.766Z,65.35
2022-10-09T06:50:12.080Z,65.14
2022-10-09T06:52:38.363Z,65.32
2022-10-09T06:55:04.731Z,65.01
2022-10-09T06:57:31.050Z,64.89
2022-10-09T06:59:58.162Z,64.82
2022-10-09T07:02:24.699Z,64.99
2022-10-09T07:04:51.170Z,65.21
2022-10-09T07:07:17.923Z,65.21
2022-10-09T07:09:44.566Z,65.36
2022-10-09T07:12:10.891Z,65.24
2022-10-09T07:14:37.204Z,65.50
2022-10-09T07:17:03.703Z,65.17
2022-10-09T07:19:30.070Z,65.02
2022-10-09T07:21:56.395Z,64.80
2022-10-09T07:24:22.711Z,64.88
2022-10-09T07:26:49.268Z,64.51
2022-10-09T07:29:15.628Z,64.61
2022-10-09T07:31:42.221Z,64.70
2022-10-09T07:34:08.684Z,64.57
2022-10-09T07:36:35.078Z,64.74
2022-10-09T07:39:01.413Z,65.05
2022-10-09T07:41:27.707Z,65.13
2022-10-09T07:43:53.975Z,65.16
2022-10-09T07:46:20.658Z,65.05
2022-10-09T07:48:47.044Z,65.16
2022-10-09T07:51:13.670Z,65.62
2022-10-09T07:53:40.438Z,65.11
2022-10-09T07:56:07.051Z,65.58
2022-10-09T07:58:33.650Z,65.81
2022-10-09T08:00:59.988Z,65.53
2022-10-09T08:03:26.536Z,65.71
2022-10-09T08:05:53.042Z,65.77
2022-10-09T08:08:19.615Z,66.08
2022-10-09T08:10:46.279Z,66.07
2022-10-09T08:13:12.580Z,65.98
2022-10-09T08:15:38.920Z,65.79
2022-10-09T08:18:05.380Z,65.98
2022-10-09T08:20:31.662Z,66.02
2022-10-09T08:22:58.032Z,65.92
2022-10-09T08:25:24.688Z,66.31
2022-10-09T08:27:51.207Z,66.38
2022-10-09T08:30:17.501Z,66.13
2022-10-09T08:32:45.902Z,66.18
2022-10-09T08:35:12.758Z,66.13
2022-10-09T08:37:39.106Z,66.29
2022-10-09T08:40:05.827Z,66.57
2022-10-09T08:42:32.203Z,66.52
2022-10-09T08:44:58.596Z,66.26
2022-10-09T08:47:24.977Z,66.41
2022-10-09T08:49:51.421Z,66.58
2022-10-09T08:52:17.790Z,66.36
2022-10-09T08:54:44.266Z,66.46
2022-10-09T08:57:10.586Z,66.83
2022-10-09T08:59:36.895Z,66.98
2022-10-09T09:02:04.519Z,66.69
2022-10-09T09:04:30.933Z,66.71
2022-10-09T09:06:58.624Z,66.88
2022-10-09T09:09:25.185Z,66.76
2022-10-09T09:11:51.560Z,66.48
2022-10-09T09:14:17.977Z,66.78
2022-10-09T09:16:44.324Z,66.96
2022-10-09T09:19:10.645Z,66.79
2022-10-09T09:21:37.138Z,66.88
2022-10-09T09:24:03.832Z,66.93
2022-10-09T09:26:30.283Z,66.89
2022-10-09T09:28:56.860Z,67.00
2022-10-09T09:31:23.290Z,66.84
2022-10-09T09:33:50.341Z,66.96
2022-10-09T09:36:16.622Z,66.68
2022-10-09T09:39:12.606Z,66.96
2022-10-09T09:41:29.299Z,66.50
2022-10-09T09:43:55.849Z,67.10
2022-10-09T09:46:22.387Z,67.25
2022-10-09T09:48:49.050Z,66.42
2022-10-09T09:51:27.857Z,66.97
2022-10-09T09:53:55.010Z,66.70
2022-10-09T09:56:21.826Z,66.60
2022-10-09T09:58:48.102Z,66.49
2022-10-09T10:01:14.519Z,66.14
2022-10-09T10:03:40.893Z,66.30
2022-10-09T10:06:07.160Z,66.45
2022-10-09T10:08:33.537Z,66.23
2022-10-09T10:10:59.809Z,66.26
2022-10-09T10:13:26.176Z,66.22
2022-10-09T10:15:52.590Z,66.06
2022-10-09T10:18:18.947Z,65.89
2022-10-09T10:20:45.505Z,66.02
2022-10-09T10:23:11.785Z,66.08
2022-10-09T10:25:38.095Z,65.75
2022-10-09T10:28:04.800Z,66.18
2022-10-09T10:30:31.215Z,65.94
2022-10-09T10:32:57.520Z,65.94
2022-10-09T10:35:23.905Z,66.08
2022-10-09T10:37:50.456Z,66.12
2022-10-09T10:40:17.034Z,65.84
2022-10-09T10:42:43.517Z,66.19
2022-10-09T10:45:09.891Z,66.08
2022-10-09T10:47:36.124Z,66.09
2022-10-09T10:50:02.522Z,66.22
2022-10-09T10:52:28.858Z,65.84
2022-10-09T10:54:55.248Z,65.92
2022-10-09T10:57:21.726Z,66.12
2022-10-09T10:59:48.026Z,65.81
2022-10-09T11:02:14.544Z,66.22
2022-10-09T11:04:40.866Z,65.95
2022-10-09T11:07:07.176Z,66.27
2022-10-09T11:09:33.455Z,65.87
2022-10-09T11:12:00.110Z,66.07
2022-10-09T11:14:26.427Z,66.20
2022-10-09T11:16:52.697Z,66.05
2022-10-09T11:19:19.122Z,66.07
2022-10-09T11:21:45.445Z,66.12
2022-10-09T11:24:11.759Z,66.18
2022-10-09T11:26:38.093Z,65.98
2022-10-09T11:29:04.493Z,66.14
2022-10-09T11:31:31.008Z,66.03
2022-10-09T11:33:57.340Z,65.98
2022-10-09T11:36:23.651Z,66.23
2022-10-09T11:38:49.938Z,65.98
2022-10-09T11:41:16.222Z,66.20
2022-10-09T11:43:42.553Z,66.29
2022-10-09T11:46:09.066Z,65.93
2022-10-09T11:48:36.281Z,65.77
2022-10-09T11:51:02.609Z,65.92
2022-10-09T11:53:28.860Z,65.89
2022-10-09T11:55:55.322Z,66.29
2022-10-09T11:58:22.819Z,66.10
2022-10-09T12:00:49.301Z,66.25
2022-10-09T12:03:15.752Z,65.94
2022-10-09T12:05:42.145Z,65.98
2022-10-09T12:08:08.508Z,65.94
2022-10-09T12:10:34.795Z,66.43
2022-10-09T12:13:01.372Z,66.09
2022-10-09T12:15:27.696Z,65.84
2022-10-09T12:17:54.108Z,66.04
2022-10-09T12:20:20.342Z,66.26
2022-10-09T12:23:01.482Z,65.92
2022-10-09T12:25:33.094Z,65.95
2022-10-09T12:27:59.455Z,66.04
2022-10-09T12:30:25.719Z,65.86
2022-10-09T12:32:53.114Z,66.25
2022-10-09T12:35:19.735Z,66.10
2022-10-09T12:37:46.041Z,66.03
2022-10-09T12:40:12.383Z,66.41
2022-10-09T12:42:38.699Z,66.31
2022-10-09T12:45:05.111Z,66.34
2022-10-09T12:47:31.452Z,65.95
2022-10-09T12:49:57.802Z,66.01
2022-10-09T12:52:24.070Z,66.26
2022-10-09T12:54:50.382Z,66.05
2022-10-09T12:57:17.228Z,66.08
2022-10-09T12:59:43.522Z,65.96
2022-10-09T13:02:09.942Z,66.39
2022-10-09T13:04:36.302Z,66.30
2022-10-09T13:07:02.599Z,66.44
2022-10-09T13:09:28.927Z,66.31
2022-10-09T13:11:55.483Z,66.05
2022-10-09T13:14:21.842Z,66.45
2022-10-09T13:16:48.136Z,66.39
2022-10-09T13:19:14.463Z,66.34
2022-10-09T13:21:40.740Z,66.46
2022-10-09T13:24:07.040Z,66.41
2022-10-09T13:26:33.339Z,66.48
2022-10-09T13:28:59.614Z,66.23
2022-10-09T13:31:25.919Z,66.37
2022-10-09T13:33:52.166Z,66.58
2022-10-09T13:36:18.487Z,66.18
2022-10-09T13:38:45.034Z,66.63
2022-10-09T13:41:11.362Z,66.35
2022-10-09T13:43:37.685Z,66.71
2022-10-09T13:46:04.014Z,66.55
2022-10-09T13:48:30.401Z,66.71
2022-10-09T13:50:56.687Z,66.60
2022-10-09T13:53:24.061Z,66.70
2022-10-09T13:55:50.305Z,66.67
2022-10-09T13:58:16.577Z,66.85
2022-10-09T14:00:43.034Z,66.77
2022-10-09T14:03:09.562Z,66.69
2022-10-09T14:05:36.130Z,66.68
2022-10-09T14:08:02.467Z,66.58
2022-10-09T14:10:28.890Z,66.89
2022-10-09T14:12:55.190Z,66.96
2022-10-09T14:15:21.648Z,63.07
2022-10-09T14:17:48.379Z,65.04
2022-10-09T14:20:14.909Z,65.30
2022-10-09T14:22:41.192Z,65.59
2022-10-09T14:25:07.519Z,65.80
2022-10-09T14:30:03.563Z,65.75
2022-10-09T14:32:29.908Z,65.43
2022-10-09T14:34:56.259Z,65.92
2022-10-09T14:37:40.451Z,66.11
2022-10-09T14:40:07.829Z,65.99
2022-10-09T14:42:34.162Z,65.77
2022-10-09T14:45:00.745Z,65.83
2022-10-09T14:47:27.005Z,66.04
2022-10-09T14:49:57.518Z,65.88
2022-10-09T14:52:25.160Z,65.92
2022-10-09T14:54:52.835Z,65.97
2022-10-09T14:57:19.901Z,66.32
2022-10-09T14:59:46.196Z,65.97
2022-10-09T15:02:12.540Z,65.92
2022-10-09T15:04:38.884Z,66.33
2022-10-09T15:07:05.274Z,66.10
2022-10-09T15:09:31.782Z,66.45
2022-10-09T15:11:58.259Z,66.42
2022-10-09T15:14:24.659Z,66.14
2022-10-09T15:16:50.965Z,66.39
2022-10-09T15:19:17.277Z,66.13
2022-10-09T15:21:43.542Z,66.35
2022-10-09T15:24:09.885Z,66.34
2022-10-09T15:26:36.134Z,66.12
2022-10-09T15:29:02.475Z,66.38
2022-10-09T15:31:28.821Z,65.96
2022-10-09T15:33:55.173Z,66.61
2022-10-09T15:36:21.773Z,66.54
2022-10-09T15:38:48.165Z,66.52
2022-10-09T15:41:14.413Z,66.22
2022-10-09T15:43:41.277Z,66.49
2022-10-09T15:46:07.737Z,66.25
2022-10-09T15:48:34.182Z,66.17
2022-10-09T15:51:00.620Z,66.46
2022-10-09T15:53:26.872Z,66.55
2022-10-09T15:55:53.150Z,66.34
2022-10-09T15:58:19.530Z,66.35
2022-10-09T16:00:46.149Z,66.36
2022-10-09T16:03:12.421Z,66.46
2022-10-09T16:05:39.550Z,66.56
2022-10-09T16:08:05.914Z,66.25
2022-10-09T16:10:32.378Z,66.34
2022-10-09T16:12:58.689Z,66.03
2022-10-09T16:15:25.229Z,66.28
2022-10-09T16:17:51.771Z,66.16
2022-10-09T16:20:18.029Z,66.46
2022-10-09T16:22:44.406Z,66.59
2022-10-09T16:25:10.709Z,66.16
2022-10-09T16:27:37.356Z,66.10
2022-10-09T16:30:03.710Z,66.05
2022-10-09T16:32:30.014Z,66.11
2022-10-09T16:34:56.315Z,66.09
2022-10-09T16:37:22.645Z,66.07
2022-10-09T16:39:48.967Z,66.26
2022-10-09T16:42:15.551Z,65.99
2022-10-09T16:44:41.817Z,66.20
2022-10-09T16:47:08.152Z,66.16
2022-10-09T16:49:34.528Z,65.90
2022-10-09T16:52:00.855Z,65.96
2022-10-09T16:54:27.330Z,66.11
2022-10-09T16:56:53.673Z,65.88
2022-10-09T16:59:19.985Z,65.89
2022-10-09T17:01:46.339Z,65.78
2022-10-09T17:04:12.706Z,65.88
2022-10-09T17:06:39.087Z,65.93
2022-10-09T17:09:08.899Z,65.74
2022-10-09T17:11:37.593Z,65.84
2022-10-09T17:14:03.852Z,65.87
2022-10-09T17:16:30.149Z,66.04
2022-10-09T17:18:56.534Z,65.96
2022-10-09T17:21:23.038Z,65.98
2022-10-09T17:23:49.343Z,65.99
2022-10-09T17:26:15.815Z,65.83
2022-10-09T17:28:42.337Z,65.68
2022-10-09T17:31:08.786Z,66.03
2022-10-09T17:33:35.143Z,65.96
2022-10-09T17:36:01.453Z,65.46
2022-10-09T17:38:27.816Z,65.81
2022-10-09T17:40:54.091Z,65.51
2022-10-09T17:43:20.677Z,65.75
2022-10-09T17:45:47.055Z,65.81
2022-10-09T17:48:13.371Z,65.91
2022-10-09T17:50:39.762Z,65.91
2022-10-09T17:53:06.025Z,65.34
2022-10-09T17:55:32.365Z,65.49
2022-10-09T17:57:58.694Z,65.52
2022-10-09T18:00:25.049Z,65.38
2022-10-09T18:02:51.402Z,65.85
2022-10-09T18:05:17.808Z,65.43
2022-10-09T18:07:44.163Z,65.53
2022-10-09T18:10:10.451Z,65.60
2022-10-09T18:12:36.853Z,65.64
2022-10-09T18:15:03.110Z,65.54
2022-10-09T18:17:29.406Z,65.43
2022-10-09T18:19:55.905Z,65.51
2022-10-09T18:22:22.236Z,65.35
2022-10-09T18:24:48.660Z,65.65
2022-10-09T18:27:15.280Z,65.31
2022-10-09T18:29:41.533Z,65.68
2022-10-09T18:32:07.773Z,65.24
2022-10-09T18:34:38.947Z,65.32
2022-10-09T18:37:06.110Z,65.48
2022-10-09T18:39:33.498Z,65.32
2022-10-09T18:41:59.864Z,65.37
2022-10-09T18:44:26.108Z,65.29
2022-10-09T18:46:52.373Z,65.49
2022-10-09T18:49:18.731Z,65.38
2022-10-09T18:51:45.017Z,65.62
2022-10-09T18:54:15.776Z,65.32
2022-10-09T18:56:44.282Z,65.66
2022-10-09T18:59:13.044Z,65.28
2022-10-09T19:01:39.510Z,65.68
2022-10-09T19:04:05.907Z,65.57
2022-10-09T19:06:32.191Z,65.39
2022-10-09T19:08:58.724Z,65.52
2022-10-09T19:11:25.046Z,65.35
2022-10-09T19:13:52.181Z,65.30
2022-10-09T19:16:18.547Z,65.24
2022-10-09T19:18:44.906Z,65.56
2022-10-09T19:21:11.272Z,65.23
2022-10-09T19:23:37.641Z,65.58
2022-10-09T19:26:04.015Z,65.14
2022-10-09T19:28:30.636Z,65.17
2022-10-09T19:30:57.087Z,65.13
2022-10-09T19:33:23.364Z,65.18
2022-10-09T19:35:49.642Z,65.31
2022-10-09T19:38:15.984Z,65.52
2022-10-09T19:40:42.350Z,65.59
2022-10-09T19:43:08.681Z,65.22
2022-10-09T19:45:35.297Z,65.25
2022-10-09T19:48:01.615Z,65.55
2022-10-09T19:50:27.940Z,65.19
2022-10-09T19:52:54.342Z,65.33
2022-10-09T19:55:20.659Z,65.12
2022-10-09T19:57:47.273Z,65.39
2022-10-09T20:00:13.905Z,65.25
2022-10-09T20:02:40.419Z,65.16
2022-10-09T20:05:06.697Z,65.11
2022-10-09T20:07:33.069Z,65.36
2022-10-09T20:09:59.359Z,65.39
2022-10-09T20:12:26.183Z,65.38
2022-10-09T20:14:52.509Z,65.37
2022-10-09T20:17:18.842Z,65.04
2022-10-09T20:19:45.832Z,65.37
2022-10-09T20:22:12.209Z,65.09
2022-10-09T20:24:38.495Z,65.43
2022-10-09T20:27:04.771Z,65.07
2022-10-09T20:29:31.229Z,65.10
2022-10-09T20:31:59.201Z,65.33
2022-10-09T20:34:25.630Z,65.31
2022-10-09T20:36:52.242Z,65.07
2022-10-09T20:39:18.568Z,65.34
2022-10-09T20:41:44.886Z,64.99
2022-10-09T20:44:11.593Z,65.06
2022-10-09T20:46:38.010Z,65.38
2022-10-09T20:49:04.360Z,65.06
2022-10-09T20:51:30.666Z,65.27
2022-10-09T20:53:57.425Z,65.16
2022-10-09T20:56:23.758Z,65.16
2022-10-09T20:58:50.055Z,64.83
2022-10-09T21:01:16.436Z,64.87
2022-10-09T21:03:42.771Z,64.96
2022-10-09T21:06:09.181Z,65.30
2022-10-09T21:08:35.469Z,64.96
2022-10-09T21:11:01.770Z,64.75
2022-10-09T21:13:28.048Z,64.84
2022-10-09T21:15:55.312Z,65.02
2022-10-09T21:18:21.636Z,64.67
2022-10-09T21:20:47.985Z,64.99
2022-10-09T21:23:14.382Z,65.00
2022-10-09T21:25:40.690Z,65.07
2022-10-09T21:28:07.197Z,64.91
2022-10-09T21:30:36.785Z,64.89
2022-10-09T21:33:05.409Z,64.74
2022-10-09T21:35:31.679Z,64.60
2022-10-09T21:37:58.457Z,64.94
2022-10-09T21:40:24.760Z,64.76
2022-10-09T21:42:51.347Z,64.91
2022-10-09T21:45:17.764Z,64.79
2022-10-09T21:47:44.104Z,64.77
2022-10-09T21:50:10.558Z,64.94
2022-10-09T21:52:36.990Z,64.93
2022-10-09T21:55:03.287Z,64.67
2022-10-09T21:57:29.533Z,65.01
2022-10-09T21:59:55.986Z,65.07
2022-10-09T22:02:22.415Z,64.88
2022-10-09T22:04:48.761Z,64.83
2022-10-09T22:07:15.031Z,64.67
2022-10-09T22:09:41.403Z,64.58
2022-10-09T22:12:07.981Z,64.89
2022-10-09T22:14:34.331Z,64.79
2022-10-09T22:17:00.649Z,64.46
2022-10-09T22:19:27.284Z,64.72
2022-10-09T22:21:53.572Z,64.81
2022-10-09T22:24:19.858Z,64.51
2022-10-09T22:26:46.101Z,64.22
2022-10-09T22:29:12.372Z,64.63
2022-10-09T22:31:38.684Z,64.61
2022-10-09T22:34:05.064Z,64.63
2022-10-09T22:36:31.341Z,64.31
2022-10-09T22:38:57.618Z,64.07
2022-10-09T22:41:23.900Z,63.96
2022-10-09T22:43:50.402Z,64.47
2022-10-09T22:46:16.924Z,64.37
2022-10-09T22:48:43.216Z,63.86
2022-10-09T22:51:09.494Z,64.01
2022-10-09T22:53:35.787Z,64.09
2022-10-09T22:56:02.085Z,63.88
2022-10-09T22:58:28.401Z,64.02
2022-10-09T23:00:54.904Z,64.12
2022-10-09T23:03:21.743Z,63.91
2022-10-09T23:05:48.048Z,63.96
2022-10-09T23:08:14.383Z,63.95
2022-10-09T23:10:40.747Z,64.31
2022-10-09T23:13:07.147Z,64.13
2022-10-09T23:15:33.434Z,63.81
2022-10-09T23:17:59.750Z,63.79
2022-10-09T23:20:26.045Z,64.17
2022-10-09T23:22:52.836Z,64.07
2022-10-09T23:25:19.550Z,63.68
2022-10-09T23:27:45.882Z,63.76
2022-10-09T23:30:12.198Z,63.69
2022-10-09T23:32:38.544Z,63.90
2022-10-09T23:35:05.022Z,63.58
2022-10-09T23:37:31.321Z,64.00
2022-10-09T23:39:57.791Z,63.32
2022-10-09T23:42:24.149Z,63.67
2022-10-09T23:44:50.421Z,63.90
2022-10-09T23:47:16.734Z,63.83
2022-10-09T23:49:43.044Z,63.73
2022-10-09T23:52:09.335Z,63.61
2022-10-09T23:54:35.638Z,63.89
2022-10-09T23:57:01.977Z,63.52
2022-10-09T23:59:28.248Z,63.54
